Columbia, North Carolina
Current Conditions -  °F | °C
As of 10:15 PM on Thursday 18 Dec 2014 (Local Time) from KEDE Reporting Station
NA  
Wind Chill: 35°   Ceiling: NA
Heat Index: 35°   Visibility: 10mi
Dew Point: 31°   Wind: 0mph
Humidity: 89%   Direction: NA
Pressure: 30.11"   Gusts: NA
Location:  35.92°N, 76.25°W
Report Text: KEDE 190315Z AUTO 00000KT 10SM 01/00 A3011 RMK AO2 T00141003
Loading
Personal Weather Stations






























Interactive Weather Map New forecast layout! Learn more

10-Day Weather Forecast

Advertisements
Track Severe Weather on mobile